• Join FlightAware (Why Join?)
  • Login
  • US Flag 
10:33PM EDT


 

Airport Tracker/Info


-or-


 

Live Flight TrackerFlight Track Log ✈ RPA3396 ✈ 15-Jun-2013 ✈ KDCA - KALB

Flight Track Log - Related Links

Times and Time Zones

All times are in EDT time to prevent confusion due to time zone crossing. See the RPA3396 flight status page for this flight to view local times or setup timezone preferences in your user account.

Time Position Orientation Groundspeed Altitude Reporting Facility
EDT Latitude Longitude Course Direction KTS MPH feet Rate Location/Type
03:33PM 38.8772 -77.0608 38° Northeast 161 185 1,600  Level Washington Center
03:34PM 38.9000 -77.0833 322° Northwest 203 234 2,700 2,760 Climbing Potomac TRACON
03:36PM 39.0138 -76.5724 57° Northeast  Level FlightAware Approximate
03:36PM 39.0231 -77.0825 360° North 175 201 9,900  Level Washington Center
03:37PM 39.0578 -76.4556 63° Northeast  Level FlightAware Approximate
03:37PM 39.0389 -76.9733 79° East 205 236 12,200  Level Washington Center
03:38PM 39.1061 -76.3414 61° Northeast  Level FlightAware Approximate
03:38PM 39.0569 -76.8533 79° East 272 313 14,100  Level Washington Center
03:39PM 39.1408 -76.2259 38° Northeast  Level FlightAware Approximate
03:39PM 39.0747 -76.7281 80° East 348 400 15,800  Level Washington Center
03:40PM 39.0947 -76.5944 79° East 370 426 17,800 1,860 Climbing Washington Center
03:41PM 39.1144 -76.4531 80° East 380 437 19,600 1,620 Climbing Washington Center
03:42PM 39.1364 -76.3114 79° East 392 451 21,000 1,500 Climbing Washington Center
03:43PM 39.1558 -76.1644 80° East 408 470 22,600 1,560 Climbing Washington Center
03:44PM 39.1939 -76.0333 69° East 418 481 24,200 1,380 Climbing Washington Center
03:45PM 39.2692 -75.9294 47° Northeast 398 458 25,500 1,020 Climbing Washington Center
03:46PM 39.3383 -75.8117 53° Northeast 404 465 26,300 960 Climbing Washington Center
03:47PM 39.4072 -75.6908 54° Northeast 410 472 27,500 840 Climbing Washington Center
03:49PM 39.5492 -75.4583 52° Northeast 416 479 28,900 480 Climbing New York Center
03:50PM 39.6119 -75.3494 53° Northeast 398 458 29,000  Climbing New York Center
03:51PM 39.6783 -75.2483 50° Northeast 379 436 29,000  Level New York Center
03:52PM 39.7578 -75.1319 48° Northeast 374 430 29,000  Level New York Center
03:53PM 39.8281 -75.0336 47° Northeast 374 430 29,000  Level New York Center
03:54PM 39.8983 -74.9350 47° Northeast 374 430 29,000  Level New York Center
03:55PM 39.9722 -74.8500 41° Northeast 374 430 29,000  Level New York Center
03:56PM 40.0506 -74.7544 43° Northeast 354 407 29,000  Level New York Center
03:57PM 40.1156 -74.6767 42° Northeast 354 407 29,000  Level New York Center
03:58PM 40.1981 -74.5781 42° Northeast 354 407 29,000 -360 Level New York Center
03:59PM 40.2653 -74.4975 42° Northeast 354 407 28,400 -720 Descending New York Center
04:00PM 40.3431 -74.4064 42° Northeast 359 413 27,600 -840 Descending New York Center
04:01PM 40.4147 -74.3119 45° Northeast 359 413 26,800 -840 Descending New York Center
04:02PM 40.4925 -74.2231 41° Northeast 359 413 26,000 -840 Descending New York Center
04:03PM 40.5658 -74.1339 43° Northeast 354 407 25,200 -720 Descending New York Center
04:05PM 40.7019 -73.9731 42° Northeast 370 426 24,000 -480 Descending Boston Center
04:06PM 40.7781 -73.8817 42° Northeast 370 426 24,000  Level Boston Center
04:07PM 40.8522 -73.7928 42° Northeast 370 426 24,000  Level Boston Center
04:08PM 40.9261 -73.7008 43° Northeast 370 426 24,000 -240 Level Boston Center
04:09PM 40.9981 -73.6033 46° Northeast 365 420 23,600 -540 Descending Boston Center
04:10PM 41.0719 -73.5222 40° Northeast 355 409 23,000 -840 Descending Boston Center
04:11PM 41.1436 -73.4350 42° Northeast 345 397 22,000 -1,080 Descending Boston Center
04:12PM 41.2131 -73.3478 43° Northeast 345 397 20,900 -1,080 Descending Boston Center
04:13PM 41.2825 -73.2633 42° Northeast 345 397 19,900 -960 Descending Boston Center
04:14PM 41.3619 -73.2200 22° Northeast 301 346 19,000 -480 Descending Boston Center
04:15PM 41.4556 -73.2517 346° North 295 339 19,000  Level Boston Center
04:16PM 41.5178 -73.2775 343° North 295 339 19,000  Level Boston Center
04:17PM 41.6156 -73.3175 343° North 304 350 19,000 -660 Level Boston Center
04:18PM 41.6922 -73.3492 343° North 299 344 17,700 -1,500 Descending Boston Center
04:19PM 41.7650 -73.3781 344° North 299 344 16,000 -1,800 Descending Boston Center
04:20PM 41.8481 -73.4128 343° North 293 337 14,100 -1,800 Descending Boston Center
04:21PM 41.9167 -73.4444 341° North 288 331 12,400 -1,800 Descending Boston Center
04:22PM 41.9747 -73.4706 342° North 269 310 11,000 -1,440 Descending Boston Center
04:22PM 41.9914 -73.4764 345° North 269 310 11,000  Level Boston Center
04:23PM 42.0453 -73.4969 344° North 250 288 11,000  Level Boston Center
04:23PM 42.0536 -73.4914 26° Northeast 253 291 11,000  Level Boston Center
04:24PM 42.1078 -73.5147 342° North 228 262 11,000  Level Boston Center
04:24PM 42.1244 -73.5206 345° North 242 278 11,000  Level Boston Center
04:25PM 42.1639 -73.5353 345° North 226 260 11,000  Level Boston Center
04:25PM 42.1825 -73.5467 336° Northwest 230 265 11,000  Level Boston Center
04:26PM 42.2219 -73.5644 342° North 230 265 11,000 -120 Level Boston Center
04:26PM 42.2303 -73.5672 346° North 225 259 10,900 -1,380 Descending Boston Center
04:27PM 42.2822 -73.5794 350° North 231 266 9,800 -1,620 Descending Boston Center
04:27PM 42.3050 -73.5856 349° North 225 259 9,300 -1,440 Descending Boston Center
04:28PM 42.3383 -73.5917 352° North 226 260 8,500 -1,320 Descending Boston Center
04:28PM 42.3611 -73.5950 354° North 220 253 8,000 -1,620 Descending Boston Center
04:29PM 42.3986 -73.6042 350° North 224 258 6,900 -2,100 Descending Boston Center
04:29PM 42.4319 -73.6158 346° North 220 253 5,900 -1,740 Descending Boston Center
04:30PM 42.4650 -73.6278 345° North 244 281 5,200 -1,140 Descending Boston Center
04:30PM 42.4919 -73.6339 351° North 231 266 4,800 -900 Descending Boston Center
04:31PM 42.5275 -73.6431 349° North 228 262 4,300 -840 Descending Boston Center
04:31PM 42.5567 -73.6492 351° North 225 259 4,000 -540 Descending Boston Center
04:32PM 42.6003 -73.6531 356° North 207 238 3,700 -300 Descending Boston Center
04:32PM 42.6086 -73.6503 14° North 215 247 3,700 -420 Level Boston Center
04:33PM 42.6589 -73.6400 North 224 258 3,300 -540 Descending Boston Center